Leal, North Dakota
Current Conditions -  °F | °C
As of 10:35 AM on Monday 24 Nov 2014 (Local Time) from KBAC Reporting Station
Light Snow Light Snow  
Wind Chill: -7°   Ceiling: 1000
Heat Index: 12°   Visibility: 10mi
Dew Point:   Wind: 22mph
Humidity: 79%   Direction: 340°NNW
Pressure: 29.75"   Gusts: 33mph
Location:  47.0662°N, 98.2132°W
Report Text: KBAC 241635Z AUTO 34019G29KT 10SM -SN OVC010 M11/M14 A2975 RMK AO2 P0001
Loading
Personal Weather Stations






























Interactive Weather Map New forecast layout! Learn more

10-Day Weather Forecast

Advertisements
Track Severe Weather on mobile